Laubachs, Pennsylvania
Current Conditions -  °F | °C
As of 4:35 PM on Sunday 21 Dec 2014 (Local Time) from KHZL Reporting Station
Clear Clear  
Wind Chill: 28°   Ceiling: Unl
Heat Index: 28°   Visibility: 10mi
Dew Point: 19°   Wind: 3mph
Humidity: 69%   Direction: 360°N
Pressure: 30.26"   Gusts: NA
Location:  41.2534°N, 76.3299°W
Report Text: KHZL 212135Z AUTO 36003KT 10SM CLR M02/M07 A3026 RMK AO2
Loading
Personal Weather Stations






























Interactive Weather Map New forecast layout! Learn more

10-Day Weather Forecast

Advertisements
Track Severe Weather on mobile